createdAt,value
2022-10-18T00:00:18.616Z,0
2022-10-18T00:05:20.260Z,0
2022-10-18T00:10:20.262Z,0
2022-10-18T00:15:20.278Z,0
2022-10-18T00:20:17.281Z,0
2022-10-18T00:25:20.270Z,0
2022-10-18T00:30:21.757Z,0
2022-10-18T00:35:20.258Z,0
2022-10-18T00:40:20.253Z,0
2022-10-18T00:45:20.247Z,0
2022-10-18T00:50:17.307Z,0
2022-10-18T00:55:17.292Z,0
2022-10-18T01:00:17.293Z,0
2022-10-18T01:05:21.770Z,0
2022-10-18T01:10:20.285Z,0
2022-10-18T01:15:20.298Z,0
2022-10-18T01:20:20.293Z,0
2022-10-18T01:25:17.311Z,0
2022-10-18T01:30:20.401Z,0
2022-10-18T01:35:20.302Z,0
2022-10-18T01:40:21.656Z,0
2022-10-18T01:45:20.313Z,0
2022-10-18T01:50:20.266Z,0
2022-10-18T01:55:20.286Z,0
2022-10-18T02:00:17.305Z,0
2022-10-18T02:05:17.338Z,0
2022-10-18T02:10:20.305Z,0
2022-10-18T02:15:21.836Z,0
2022-10-18T02:20:17.308Z,0
2022-10-18T02:25:17.360Z,0
2022-10-18T02:30:17.337Z,0
2022-10-18T02:35:17.396Z,0
2022-10-18T02:40:20.316Z,0
2022-10-18T02:45:20.312Z,0
2022-10-18T02:50:21.698Z,0
2022-10-18T02:55:20.379Z,0
2022-10-18T03:00:20.317Z,0
2022-10-18T03:05:20.315Z,0
2022-10-18T03:10:18.315Z,0
2022-10-18T03:15:18.352Z,0
2022-10-18T03:20:17.370Z,0
2022-10-18T03:25:18.786Z,0
2022-10-18T03:30:18.366Z,0
2022-10-18T03:35:18.296Z,0
2022-10-18T03:40:18.388Z,0
2022-10-18T03:45:15.414Z,0
2022-10-18T03:50:15.369Z,0
2022-10-18T03:55:18.374Z,0
2022-10-18T04:00:21.146Z,0
2022-10-18T04:05:19.634Z,0
2022-10-18T04:10:19.638Z,0
2022-10-18T04:15:19.624Z,0
2022-10-18T04:20:16.623Z,0
2022-10-18T04:25:16.636Z,0
2022-10-18T04:30:19.614Z,0
2022-10-18T04:35:20.938Z,0
2022-10-18T04:40:19.610Z,0
2022-10-18T04:45:16.619Z,0
2022-10-18T04:50:16.645Z,0
2022-10-18T04:55:19.641Z,0
2022-10-18T05:00:19.726Z,0
2022-10-18T05:05:19.614Z,0
2022-10-18T05:10:21.104Z,0
2022-10-18T05:15:19.609Z,0
2022-10-18T05:20:16.707Z,0
2022-10-18T05:25:16.642Z,0
2022-10-18T05:30:19.655Z,0
2022-10-18T05:35:19.594Z,0
2022-10-18T05:40:19.663Z,0
2022-10-18T05:45:18.096Z,0
2022-10-18T05:50:16.669Z,0
2022-10-18T05:55:19.663Z,0
2022-10-18T06:00:19.668Z,0
2022-10-18T06:05:19.669Z,0
2022-10-18T06:10:19.646Z,0
2022-10-18T06:15:16.706Z,0
2022-10-18T06:20:21.139Z,0
2022-10-18T06:25:19.708Z,0
2022-10-18T06:30:19.642Z,0
2022-10-18T06:35:19.700Z,0
2022-10-18T06:40:19.644Z,0
2022-10-18T06:45:16.694Z,0
2022-10-18T06:50:16.692Z,0
2022-10-18T06:55:21.205Z,0
2022-10-18T07:00:19.666Z,0
2022-10-18T07:05:16.625Z,0
2022-10-18T07:10:19.687Z,0
2022-10-18T07:15:16.681Z,0
2022-10-18T07:20:16.701Z,0
2022-10-18T07:25:19.699Z,0
2022-10-18T07:30:21.197Z,0
2022-10-18T07:35:19.704Z,0
2022-10-18T07:40:16.555Z,0
2022-10-18T07:45:19.691Z,0
2022-10-18T07:50:16.700Z,0
2022-10-18T07:55:19.701Z,0
2022-10-18T08:00:19.765Z,0
2022-10-18T08:05:21.367Z,0
2022-10-18T08:10:19.742Z,0
2022-10-18T08:15:16.728Z,0
2022-10-18T08:20:30.456Z,0
2022-10-18T08:25:16.714Z,0
2022-10-18T08:30:19.817Z,0
2022-10-18T08:35:19.745Z,0
2022-10-18T08:40:21.180Z,0
2022-10-18T08:45:37.542Z,0
2022-10-18T08:50:16.732Z,0
2022-10-18T08:55:16.738Z,0
2022-10-18T09:00:19.745Z,0
2022-10-18T09:05:19.758Z,0
2022-10-18T09:10:19.748Z,0
2022-10-18T09:15:21.180Z,0
2022-10-18T09:20:16.783Z,0
2022-10-18T09:25:16.773Z,0
2022-10-18T09:30:19.734Z,0
2022-10-18T09:35:19.732Z,0
2022-10-18T09:40:18.937Z,0
2022-10-18T09:45:19.743Z,0
2022-10-18T09:50:21.298Z,0
2022-10-18T09:55:16.769Z,0
2022-10-18T10:00:16.792Z,0
2022-10-18T10:05:19.764Z,0
2022-10-18T10:10:19.735Z,0
2022-10-18T10:15:19.755Z,0
2022-10-18T10:20:19.760Z,0
2022-10-18T10:25:18.229Z,0
2022-10-18T10:30:16.832Z,0
2022-10-18T10:35:33.875Z,0
2022-10-18T10:40:22.898Z,0
2022-10-18T10:45:19.747Z,0
2022-10-18T10:50:19.766Z,0
2022-10-18T10:55:34.938Z,0
2022-10-18T11:00:19.984Z,0
2022-10-18T11:05:16.809Z,0
2022-10-18T11:10:19.824Z,0
2022-10-18T11:15:19.832Z,0
2022-10-18T11:20:19.781Z,0
2022-10-18T11:25:19.795Z,0
2022-10-18T11:30:18.207Z,5
2022-10-18T11:35:16.857Z,6
2022-10-18T11:40:19.822Z,7
2022-10-18T11:45:19.879Z,5
2022-10-18T11:50:19.811Z,9
2022-10-18T11:55:19.750Z,16
2022-10-18T12:00:21.329Z,21
2022-10-18T12:05:24.880Z,24
2022-10-18T12:10:31.430Z,36
2022-10-18T12:15:19.803Z,46
2022-10-18T12:20:19.832Z,52
2022-10-18T12:25:19.773Z,62
2022-10-18T12:30:19.835Z,67
2022-10-18T12:35:18.213Z,53
2022-10-18T12:40:21.493Z,51
2022-10-18T12:45:19.830Z,81
2022-10-18T12:50:19.856Z,71
2022-10-18T12:55:19.776Z,57
2022-10-18T13:00:16.867Z,53
2022-10-18T13:05:33.566Z,57
2022-10-18T13:10:21.334Z,66
2022-10-18T13:15:25.693Z,80
2022-10-18T13:20:26.029Z,76
2022-10-18T13:25:19.825Z,80
2022-10-18T13:30:19.820Z,81
2022-10-18T13:35:19.850Z,89
2022-10-18T13:40:16.837Z,87
2022-10-18T13:45:18.415Z,80
2022-10-18T13:50:19.885Z,74
2022-10-18T13:55:19.905Z,95
2022-10-18T14:00:19.881Z,90
2022-10-18T14:05:25.058Z,113
2022-10-18T14:10:16.929Z,208
2022-10-18T14:15:16.856Z,199
2022-10-18T14:20:23.004Z,60
2022-10-18T14:25:19.860Z,63
2022-10-18T14:30:19.859Z,85
2022-10-18T14:35:32.172Z,96
2022-10-18T14:40:19.895Z,79
2022-10-18T14:45:16.932Z,85
2022-10-18T14:50:16.887Z,104
2022-10-18T14:55:21.357Z,290
2022-10-18T15:00:19.944Z,289
2022-10-18T15:05:19.893Z,159
2022-10-18T15:10:16.895Z,212
2022-10-18T15:15:16.896Z,168
2022-10-18T15:20:19.916Z,147
2022-10-18T15:25:19.918Z,129
2022-10-18T15:30:21.288Z,100
2022-10-18T15:35:16.866Z,124
2022-10-18T15:40:19.889Z,391
2022-10-18T15:45:16.928Z,138
2022-10-18T15:50:16.909Z,167
2022-10-18T15:55:19.931Z,175
2022-10-18T16:00:19.920Z,202
2022-10-18T16:05:21.478Z,176
2022-10-18T16:10:19.890Z,167
2022-10-18T16:15:16.834Z,167
2022-10-18T16:20:16.951Z,185
2022-10-18T16:25:19.927Z,166
2022-10-18T16:30:19.928Z,174
2022-10-18T16:35:19.911Z,158
2022-10-18T16:40:21.483Z,123
2022-10-18T16:45:19.953Z,87
2022-10-18T16:50:19.942Z,109
2022-10-18T16:55:16.966Z,130
2022-10-18T17:00:19.909Z,116
2022-10-18T17:05:19.947Z,125
2022-10-18T17:10:19.962Z,77
2022-10-18T17:15:21.313Z,77
2022-10-18T17:20:19.952Z,109
2022-10-18T17:25:19.926Z,93
2022-10-18T17:30:16.970Z,81
2022-10-18T17:35:16.965Z,49
2022-10-18T17:40:19.938Z,38
2022-10-18T17:45:19.947Z,36
2022-10-18T17:50:21.326Z,133
2022-10-18T17:55:19.921Z,127
2022-10-18T18:00:16.995Z,77
2022-10-18T18:05:16.975Z,109
2022-10-18T18:10:19.976Z,88
2022-10-18T18:15:19.973Z,90
2022-10-18T18:20:19.966Z,128
2022-10-18T18:25:21.363Z,109
2022-10-18T18:30:17.012Z,100
2022-10-18T18:35:16.984Z,85
2022-10-18T18:40:20.049Z,60
2022-10-18T18:45:19.958Z,97
2022-10-18T18:50:19.978Z,117
2022-10-18T18:55:36.417Z,101
2022-10-18T19:00:19.952Z,68
2022-10-18T19:05:17.078Z,77
2022-10-18T19:10:17.019Z,62
2022-10-18T19:15:20.025Z,76
2022-10-18T19:20:19.989Z,101
2022-10-18T19:25:22.189Z,90
2022-10-18T19:30:19.998Z,72
2022-10-18T19:35:19.996Z,43
2022-10-18T19:40:19.988Z,34
2022-10-18T19:45:19.988Z,59
2022-10-18T19:50:20.038Z,43
2022-10-18T19:55:19.993Z,47
2022-10-18T20:00:19.418Z,36
2022-10-18T20:05:17.027Z,42
2022-10-18T20:10:21.421Z,28
2022-10-18T20:15:20.013Z,25
2022-10-18T20:20:19.997Z,22
2022-10-18T20:25:20.050Z,19
2022-10-18T20:30:17.023Z,19
2022-10-18T20:35:17.076Z,18
2022-10-18T20:40:20.277Z,18
2022-10-18T20:45:20.014Z,18
2022-10-18T20:50:17.086Z,18
2022-10-18T20:55:20.036Z,16
2022-10-18T21:00:17.074Z,16
2022-10-18T21:05:17.085Z,17
2022-10-18T21:10:20.042Z,13
2022-10-18T21:15:20.005Z,12
2022-10-18T21:20:20.026Z,12
2022-10-18T21:25:17.054Z,10
2022-10-18T21:30:17.076Z,9
2022-10-18T21:35:17.096Z,7
2022-10-18T21:40:20.101Z,6
2022-10-18T21:45:20.039Z,5
2022-10-18T21:50:20.006Z,0
2022-10-18T21:55:17.096Z,0
2022-10-18T22:00:17.093Z,0
2022-10-18T22:05:17.141Z,0
2022-10-18T22:10:17.104Z,0
2022-10-18T22:15:20.178Z,0
2022-10-18T22:20:20.075Z,0
2022-10-18T22:25:17.102Z,0
2022-10-18T22:30:17.106Z,0
2022-10-18T22:35:17.134Z,0
2022-10-18T22:40:20.111Z,0
2022-10-18T22:45:16.905Z,0
2022-10-18T22:50:20.095Z,0
2022-10-18T22:55:20.079Z,0
2022-10-18T23:00:17.152Z,0
2022-10-18T23:05:17.136Z,0
2022-10-18T23:10:17.087Z,0
2022-10-18T23:15:20.100Z,0
2022-10-18T23:20:20.112Z,0
2022-10-18T23:25:17.089Z,0
2022-10-18T23:30:20.108Z,0
2022-10-18T23:35:17.120Z,0
2022-10-18T23:40:20.098Z,0
2022-10-18T23:45:20.108Z,0
2022-10-18T23:50:20.053Z,0
2022-10-18T23:55:20.082Z,0
